createdAt,value
2019-04-27T00:02:06.487Z,2.17
2019-04-27T00:22:26.788Z,2.93
2019-04-27T00:33:17.134Z,2.57
2019-04-27T00:42:35.617Z,1.90
2019-04-27T00:52:37.991Z,2.17
2019-04-27T01:34:39.654Z,2.00
2019-04-27T01:44:41.495Z,1.70
2019-04-27T01:54:42.195Z,1.80
2019-04-27T02:04:43.467Z,1.30
2019-04-27T02:14:44.202Z,1.50
2019-04-27T02:24:44.976Z,1.50
2019-04-27T02:34:46.672Z,1.60
2019-04-27T02:44:49.449Z,1.50
2019-04-27T02:54:50.785Z,1.37
2019-04-27T03:04:51.601Z,1.63
2019-04-27T03:14:52.331Z,1.60
2019-04-27T03:25:00.055Z,1.70
2019-04-27T03:35:02.754Z,2.10
2019-04-27T03:45:05.047Z,3.73
2019-04-27T03:55:05.939Z,1.20
2019-04-27T04:05:09.644Z,8.50
2019-04-27T04:15:10.054Z,18.33
2019-04-27T04:25:11.017Z,11.50
2019-04-27T04:35:21.198Z,1.80
2019-04-27T04:45:21.037Z,2.63
2019-04-27T04:55:21.895Z,2.40
2019-04-27T05:05:22.661Z,2.30
2019-04-27T05:15:23.329Z,1.40
2019-04-27T05:25:24.094Z,2.43
2019-04-27T05:35:24.720Z,0.60
2019-04-27T05:45:48.818Z,0.90
2019-04-27T05:55:49.497Z,0.70
2019-04-27T06:05:50.129Z,0.60
2019-04-27T06:15:50.854Z,0.50
2019-04-27T06:25:51.488Z,0.70
2019-04-27T06:35:52.183Z,0.80
2019-04-27T06:45:53.899Z,0.77
2019-04-27T06:55:54.537Z,1.23
2019-04-27T07:05:55.358Z,1.70
2019-04-27T07:15:56.132Z,3.00
2019-04-27T07:25:56.801Z,3.13
2019-04-27T07:35:59.078Z,4.83
2019-04-27T07:45:59.894Z,5.30
2019-04-27T07:56:01.741Z,5.07
2019-04-27T08:06:02.485Z,5.70
2019-04-27T08:16:03.233Z,5.20
2019-04-27T08:26:03.881Z,5.50
2019-04-27T08:36:04.611Z,4.67
2019-04-27T08:46:05.384Z,3.50
2019-04-27T08:56:06.065Z,4.43
2019-04-27T09:06:06.714Z,6.27
2019-04-27T09:16:11.018Z,6.63
2019-04-27T09:26:13.069Z,5.50
2019-04-27T09:36:13.711Z,4.50
2019-04-27T09:46:15.717Z,4.17
2019-04-27T09:56:16.551Z,4.13
2019-04-27T10:06:18.273Z,3.73
2019-04-27T10:16:18.946Z,2.77
2019-04-27T10:26:19.626Z,3.27
2019-04-27T10:36:20.272Z,2.33
2019-04-27T10:46:20.919Z,2.40
2019-04-27T10:56:21.696Z,5.37
2019-04-27T11:06:22.415Z,3.17
2019-04-27T11:16:23.149Z,3.20
2019-04-27T11:26:26.302Z,2.97
2019-04-27T11:36:27.042Z,1.73
2019-04-27T11:46:27.904Z,1.30
2019-04-27T11:56:28.605Z,0.90
2019-04-27T12:06:29.277Z,0.60
2019-04-27T12:16:29.965Z,0.40
2019-04-27T12:26:33.384Z,0.30
2019-04-27T12:36:35.824Z,0.27
2019-04-27T12:46:36.572Z,0.47
2019-04-27T12:56:37.239Z,0.40
2019-04-27T13:06:37.935Z,0.70
2019-04-27T13:16:41.740Z,0.60
2019-04-27T13:26:42.429Z,0.50
2019-04-27T13:36:46.950Z,0.90
2019-04-27T13:46:47.715Z,1.03
2019-04-27T13:56:51.090Z,0.60
2019-04-27T14:06:51.773Z,0.83
2019-04-27T14:16:52.397Z,0.40
2019-04-27T14:26:53.348Z,0.77
2019-04-27T14:36:54.051Z,0.70
2019-04-27T14:57:02.195Z,0.60
2019-04-27T15:07:03.653Z,0.57
2019-04-27T15:17:04.680Z,0.60
2019-04-27T15:27:05.835Z,0.60
2019-04-27T15:37:07.940Z,0.53
2019-04-27T15:47:11.952Z,0.50
2019-04-27T15:57:13.740Z,0.60
2019-04-27T16:07:24.827Z,0.53
2019-04-27T16:17:28.681Z,1.40
2019-04-27T16:27:31.518Z,0.40
2019-04-27T16:37:31.734Z,0.40
2019-04-27T16:47:32.514Z,1.00
2019-04-27T16:57:37.407Z,0.50
2019-04-27T17:07:41.231Z,0.43
2019-04-27T17:17:47.116Z,0.40
2019-04-27T17:27:48.272Z,0.37
2019-04-27T17:37:50.243Z,0.73
2019-04-27T17:47:51.926Z,0.60
2019-04-27T17:58:00.600Z,0.60
2019-04-27T18:08:00.112Z,1.70
2019-04-27T18:18:00.824Z,0.63
2019-04-27T18:28:01.574Z,3.33
2019-04-27T18:38:02.253Z,1.63
2019-04-27T18:48:06.630Z,0.77
2019-04-27T18:58:06.557Z,0.70
2019-04-27T19:08:07.389Z,1.20
2019-04-27T19:18:14.167Z,0.50
2019-04-27T19:28:14.886Z,0.83
2019-04-27T19:38:22.579Z,0.63
2019-04-27T19:48:23.245Z,0.90
2019-04-27T19:58:23.995Z,0.80
2019-04-27T20:08:24.729Z,0.93
2019-04-27T20:18:25.425Z,0.97
2019-04-27T20:28:26.181Z,0.70
2019-04-27T20:38:26.885Z,0.60
2019-04-27T20:48:27.669Z,0.60
2019-04-27T20:58:31.536Z,0.90
2019-04-27T21:08:32.306Z,1.10
2019-04-27T21:18:33.069Z,1.10
2019-04-27T21:28:33.826Z,1.10
2019-04-27T21:38:34.529Z,1.00
2019-04-27T21:48:37.214Z,1.10
2019-04-27T21:58:42.015Z,1.70
2019-04-27T22:08:42.979Z,1.37
2019-04-27T22:18:48.089Z,1.20
2019-04-27T22:28:49.604Z,1.10
2019-04-27T22:38:52.527Z,1.33
2019-04-27T22:48:53.290Z,2.03
2019-04-27T22:59:00.510Z,1.57
2019-04-27T23:08:56.708Z,1.70
2019-04-27T23:18:57.482Z,1.13
2019-04-27T23:29:10.374Z,1.30
2019-04-27T23:39:01.033Z,1.07
2019-04-27T23:49:01.974Z,1.53
2019-04-27T23:59:02.820Z,1.00
